To NAV CANADA Home Page Login to a new session Search on AWWS site Feedback and Comments Disclaimer Vers la page française équivalente Tips FAQ What's new on the site To the Forecasts and Observations / NOTAM section To "File a Flight Plan" website Publications and other links Update of the User's profile FIC Telephone Numbers My Weather Data Folder Route Weather Data Regional Weather Data Local Weather Data To the Forecasts and Observations / NOTAM section
Request Generated 08/22/2017 at 01:37:06 UTC . Weather information available at that time is displayed.

METAR/TAF

SASKATOON/JOHN G. DIEFENBAKER INTL/SK    

METAR CYXE 220100Z 31008KT 15SM SCT280 20/04 A3010 RMK CI4 SLP206
DENSITY ALT 2500FT=
METAR CYXE 220000Z 33013G18KT 15SM FEW080 BKN280 21/04 A3010 RMK
CF1CI6 CF TR SLP206 DENSITY ALT 2600FT=
METAR CYXE 212300Z 31014G19KT 15SM FEW080 BKN280 22/03 A3010 RMK
CU1CI6 SLP205 DENSITY ALT 2600FT=

TAF CYXE 212338Z 2200/2224 31012G22KT P6SM FEW080 SCT280
BECMG 2202/2204 29008KT
FM220600 18006KT P6SM BKN080
BECMG 2212/2214 14008KT
FM221800 18010KT P6SM BKN140
BECMG 2220/2222 25008KT
RMK NXT FCST BY 220600Z=
Your time UTC time
Weather data provided by Environment Canada and NAV CANADA